Southwest Oregon Regional Airport
KOTH : now visible

Airfield :











YOU CAN JOIN US ON...

 
LOGIN :

Register | Disclaimer

   EN    FR    IT 

 









Legend :    VFR   Marginal VFR   IFR   Intensive IFR   Very Intensive IFR
Visi :
Ceiling :
>= 8 km
>= 3000ft
5 to 8 km
1000 to 3000 ft
1500m to 5 km
500 to 1000 ft
800 to 1500m
200 to 500 ft
< 800m
< 200 ft
Symbols :   Thunderstorms  Fog  Heavy snow  Heavy precipitations  Wind > 20 kt






- Airport Elevation : 17 ft
- IATA code : OTH


KOTH - Southwest Oregon Regional

CURRENT METAR :
  • 250156Z 35016KT 10SM CLR 15/12 A3012 RMK AO2 SLP199 T01500122

EXPIRED METARs :
  • 250056Z 35017KT 10SM CLR 16/13 A3011 RMK AO2 PK WND 35026/0014 SLP197 T01610128
  • 242356Z 35018KT 10SM CLR 17/13 A3011 RMK AO2 SLP196 T01720128 10211 20172 58008

TAF KOTH
Valid from the 25 at 00:00 until the 26 at 00:00 UTC


242338Z 2500/2524 35018G24KT P6SM SKC
FM251000 36003KT 1/2SM FG OVC003
FM251800 33007KT 4SM BR SCT006
FM252100 33012G18KT P6SM SKC
KZSE FIR / North America



MET'MAP, your aeronautical weather chart ! - Copyright ORBIFLY December 2007 - Disclaimer

ORBIFLY MET'MAP TEAM :

Programming & Development : Alexandra Zaïnal
Original concept : Baudouin d'Aumeries
Technical & hardware support : Manuel Goepfert
Assistance : Marc-Olivier Méhu




SOURCES & CREDITS :

   NOAA       Earth
Advisory